Time;durP1;ratioP1;P1;durP2;ratioP2;P2;SDS_P1;SDS_P2;PMS_P1;PMS_P2;Temp;Humidity;BMP_temperature;BMP_pressure;BME280_temperature;BME280_humidity;BME280_pressure;Samples;Min_cycle;Max_cycle;Signal;HPM_P1;HPM_P2
2021/12/20 00:03:56;;;;;;;8.25;3.90;;;;;;;2.85;100.00;94143.59;10374989;28;20025;-75
2021/12/20 00:08:59;;;;;;;8.73;4.15;;;;;;;2.81;100.00;94141.66;10358595;28;20175;-77
2021/12/20 00:14:00;;;;;;;6.43;4.60;;;;;;;2.70;100.00;94149.44;10359243;28;20014;-72
2021/12/20 00:19:00;;;;;;;6.82;3.67;;;;;;;2.83;100.00;94156.31;10359202;28;20025;-74
2021/12/20 00:24:01;;;;;;;7.07;4.17;;;;;;;2.85;100.00;94162.16;10358277;28;20104;-73
2021/12/20 00:29:01;;;;;;;6.00;3.70;;;;;;;2.82;100.00;94149.38;10359749;28;20283;-70
2021/12/20 00:34:01;;;;;;;8.23;4.72;;;;;;;2.88;100.00;94153.72;10342022;28;20034;-71
2021/12/20 00:44:22;;;;;;;7.47;3.75;;;;;;;2.82;100.00;94149.38;10359125;28;20428;-76
2021/12/20 00:49:22;;;;;;;10.32;4.32;;;;;;;2.90;100.00;94138.38;10375101;28;20037;-74
2021/12/20 00:54:22;;;;;;;6.20;3.95;;;;;;;2.95;100.00;94142.16;10375587;28;20096;-74
2021/12/20 00:59:23;;;;;;;6.40;3.23;;;;;;;2.88;100.00;94132.50;10358276;28;20038;-71
2021/12/20 01:04:23;;;;;;;6.40;3.72;;;;;;;2.80;100.00;94127.56;10358719;28;20300;-72
2021/12/20 01:09:24;;;;;;;8.02;3.42;;;;;;;2.83;100.00;94118.34;10358158;28;20028;-72
2021/12/20 01:14:27;;;;;;;5.70;3.58;;;;;;;2.87;100.00;94111.50;10358415;28;20585;-69
2021/12/20 01:19:28;;;;;;;5.10;3.17;;;;;;;2.83;100.00;94103.22;10366691;28;20025;-75
2021/12/20 01:24:28;;;;;;;6.90;3.88;;;;;;;2.74;100.00;94109.97;10334720;28;20034;-72
2021/12/20 01:29:29;;;;;;;4.00;3.10;;;;;;;2.46;100.00;94108.97;10367758;28;20388;-69
2021/12/20 01:34:29;;;;;;;5.55;3.92;;;;;;;2.28;100.00;94106.50;10365190;28;20113;-71
2021/12/20 01:39:30;;;;;;;6.00;3.50;;;;;;;2.12;100.00;94086.84;10364883;28;20084;-74
2021/12/20 01:44:31;;;;;;;9.50;4.10;;;;;;;2.08;100.00;94125.44;10364505;28;20132;-73
2021/12/20 01:49:40;;;;;;;8.35;3.80;;;;;;;2.24;100.00;94122.06;10365826;28;20025;-71
2021/12/20 01:54:40;;;;;;;7.65;4.03;;;;;;;2.26;100.00;94138.56;10380681;28;20038;-71
2021/12/20 01:59:41;;;;;;;6.55;3.63;;;;;;;2.57;100.00;94144.44;10366365;28;20431;-73
2021/12/20 02:04:47;;;;;;;6.80;3.38;;;;;;;2.52;100.00;94150.44;10364709;28;20490;-76
2021/12/20 02:09:47;;;;;;;5.80;4.07;;;;;;;2.52;100.00;94134.50;10363583;28;20607;-72
2021/12/20 02:14:48;;;;;;;4.95;3.22;;;;;;;2.57;100.00;94131.16;10379043;28;20026;-73
2021/12/20 02:19:48;;;;;;;7.35;4.10;;;;;;;2.68;100.00;94142.75;10363160;28;20390;-73
2021/12/20 02:24:49;;;;;;;6.88;4.00;;;;;;;2.78;100.00;94153.56;10345871;28;20033;-73
2021/12/20 02:30:10;;;;;;;9.90;4.35;;;;;;;2.77;100.00;94162.56;10362246;28;20017;-70
2021/12/20 02:40:30;;;;;;;7.55;3.90;;;;;;;2.76;100.00;94158.28;10364700;28;20042;-70
2021/12/20 02:45:33;;;;;;;11.98;4.55;;;;;;;2.72;100.00;94175.72;10379617;28;20078;-71
2021/12/20 02:50:33;;;;;;;8.13;4.55;;;;;;;2.72;100.00;94181.84;10364135;28;20022;-73
2021/12/20 02:55:34;;;;;;;5.93;3.22;;;;;;;2.68;100.00;94178.06;10362563;28;20046;-70
2021/12/20 03:00:34;;;;;;;6.35;3.75;;;;;;;2.70;100.00;94160.03;10368176;28;20066;-72
2021/12/20 03:05:36;;;;;;;7.47;4.30;;;;;;;2.64;100.00;94154.91;10379889;28;20511;-73
2021/12/20 03:10:40;;;;;;;8.23;4.43;;;;;;;2.74;100.00;94139.94;10363231;28;20022;-73
2021/12/20 03:15:41;;;;;;;6.65;3.67;;;;;;;2.82;100.00;94156.53;10374259;28;20080;-74
2021/12/20 03:20:41;;;;;;;9.82;4.68;;;;;;;2.80;100.00;94158.63;10362313;28;20025;-69
2021/12/20 03:25:42;;;;;;;9.27;4.75;;;;;;;2.76;100.00;94157.50;10361398;28;20029;-72
2021/12/20 03:30:44;;;;;;;6.22;3.88;;;;;;;2.61;100.00;94172.09;10361765;28;20026;-76
2021/12/20 03:35:45;;;;;;;7.68;4.40;;;;;;;2.78;100.00;94174.78;10362714;28;20093;-71
2021/12/20 03:40:45;;;;;;;8.90;4.35;;;;;;;2.79;100.00;94179.06;10360912;28;20030;-70
2021/12/20 03:45:50;;;;;;;6.75;4.53;;;;;;;2.91;100.00;94169.16;10360753;28;20704;-73
2021/12/20 03:50:51;;;;;;;11.65;4.05;;;;;;;2.88;100.00;94174.16;10361350;28;20060;-69
2021/12/20 03:55:51;;;;;;;6.30;3.95;;;;;;;2.82;100.00;94181.22;10360023;28;20555;-71
2021/12/20 04:00:52;;;;;;;10.55;4.55;;;;;;;2.81;100.00;94174.31;10344227;28;20025;-73
2021/12/20 04:05:52;;;;;;;8.25;4.53;;;;;;;2.71;100.00;94176.78;10359721;28;20034;-72
2021/12/20 04:10:53;;;;;;;10.43;5.65;;;;;;;2.61;100.00;94190.66;10359146;28;20025;-72
2021/12/20 04:15:53;;;;;;;10.75;6.32;;;;;;;2.58;100.00;94195.63;10360500;28;20026;-73
2021/12/20 04:20:55;;;;;;;12.60;6.65;;;;;;;2.39;100.00;94199.25;10360072;28;20021;-81
2021/12/20 04:25:56;;;;;;;10.68;5.65;;;;;;;2.38;100.00;94210.09;10359908;28;20026;-74
2021/12/20 04:30:56;;;;;;;11.52;6.05;;;;;;;2.28;100.00;94208.06;10359953;28;20030;-76
2021/12/20 04:35:56;;;;;;;13.95;7.28;;;;;;;2.15;100.00;94203.81;10360479;28;20022;-69
2021/12/20 04:40:58;;;;;;;13.88;7.35;;;;;;;2.17;100.00;94211.53;10342583;28;20434;-72
2021/12/20 04:45:58;;;;;;;13.68;6.75;;;;;;;2.20;100.00;94219.81;10360543;28;20597;-72
2021/12/20 04:50:59;;;;;;;14.70;6.05;;;;;;;2.09;100.00;94217.19;10361415;28;20022;-77
2021/12/20 04:55:59;;;;;;;12.27;7.30;;;;;;;1.95;100.00;94224.59;10365258;28;20427;-68
2021/12/20 05:01:00;;;;;;;17.08;7.45;;;;;;;1.83;100.00;94235.19;10366200;28;20133;-70
2021/12/20 05:06:00;;;;;;;14.85;7.50;;;;;;;1.73;100.00;94241.06;10366427;28;20022;-69
2021/12/20 05:11:04;;;;;;;14.10;8.07;;;;;;;1.80;100.00;94239.13;10367537;28;20033;-72
2021/12/20 05:16:05;;;;;;;12.23;6.28;;;;;;;1.84;100.00;94242.91;10381538;28;20280;-71
2021/12/20 05:21:05;;;;;;;11.13;5.70;;;;;;;2.09;100.00;94249.78;10363918;28;20029;-74
2021/12/20 05:26:06;;;;;;;10.68;5.93;;;;;;;1.85;100.00;94244.50;10365589;28;20022;-74
2021/12/20 05:31:07;;;;;;;12.98;6.45;;;;;;;1.90;100.00;94261.56;10364584;28;20018;-73
2021/12/20 05:36:07;;;;;;;10.98;5.70;;;;;;;1.89;100.00;94255.47;10348141;28;20025;-73
2021/12/20 05:41:08;;;;;;;13.95;6.53;;;;;;;1.51;100.00;94252.22;10363461;28;20042;-70
2021/12/20 05:46:08;;;;;;;14.23;6.17;;;;;;;1.44;100.00;94246.22;10363693;28;20030;-74
2021/12/20 05:51:10;;;;;;;9.27;4.43;;;;;;;1.40;100.00;94254.84;10363883;28;20647;-71
2021/12/20 05:56:11;;;;;;;8.25;4.30;;;;;;;1.38;100.00;94252.41;10364939;28;20108;-68
2021/12/20 06:01:11;;;;;;;11.27;5.93;;;;;;;1.52;100.00;94264.44;10363993;28;20112;-72
2021/12/20 06:06:12;;;;;;;8.23;4.45;;;;;;;1.84;100.00;94277.38;10361717;28;20628;-70
2021/12/20 06:11:13;;;;;;;6.93;4.78;;;;;;;1.87;100.00;94268.13;10346002;28;20555;-71
2021/12/20 06:16:14;;;;;;;10.60;5.32;;;;;;;2.00;100.00;94286.44;10361968;28;20137;-71
2021/12/20 06:21:14;;;;;;;8.55;4.70;;;;;;;1.92;100.00;94278.84;10361650;28;20026;-71
2021/12/20 06:26:15;;;;;;;6.57;4.23;;;;;;;2.20;100.00;94296.69;10345936;28;20029;-69
2021/12/20 06:31:15;;;;;;;7.60;4.57;;;;;;;2.15;100.00;94298.44;10361679;28;20272;-70
2021/12/20 06:36:18;;;;;;;7.35;4.43;;;;;;;2.15;100.00;94293.94;10361686;28;20460;-70
2021/12/20 06:41:18;;;;;;;9.52;4.70;;;;;;;2.06;100.00;94303.28;10363917;28;20546;-70
2021/12/20 06:46:21;;;;;;;9.70;4.65;;;;;;;2.32;100.00;94304.66;10361233;28;20084;-73
2021/12/20 06:51:22;;;;;;;7.20;4.45;;;;;;;2.45;100.00;94308.91;10360850;28;20488;-73
2021/12/20 06:56:22;;;;;;;7.40;4.03;;;;;;;2.62;100.00;94294.94;10344655;28;20144;-71
2021/12/20 07:01:24;;;;;;;9.25;4.80;;;;;;;2.70;100.00;94297.22;10360941;28;20470;-75
2021/12/20 07:06:24;;;;;;;4.88;3.65;;;;;;;2.62;100.00;94314.28;10358988;28;20026;-72
2021/12/20 07:11:25;;;;;;;6.30;4.07;;;;;;;2.71;100.00;94304.94;10343878;28;20033;-71
2021/12/20 07:16:25;;;;;;;7.10;4.28;;;;;;;2.80;100.00;94308.03;10354604;28;20029;-73
2021/12/20 07:21:26;;;;;;;7.10;4.13;;;;;;;2.95;100.00;94299.56;10359650;28;20489;-74
2021/12/20 07:26:28;;;;;;;7.85;4.45;;;;;;;2.94;100.00;94303.25;10359577;28;20455;-71
2021/12/20 07:31:29;;;;;;;7.13;3.78;;;;;;;2.71;100.00;94298.84;10359117;28;20030;-74
2021/12/20 07:36:31;;;;;;;6.45;3.30;;;;;;;2.88;100.00;94304.22;10387649;28;20050;-74
2021/12/20 07:41:31;;;;;;;7.00;3.78;;;;;;;2.46;100.00;94289.31;10360097;28;20478;-70
2021/12/20 07:46:32;;;;;;;6.95;3.58;;;;;;;2.36;100.00;94294.41;10360118;28;20037;-74
2021/12/20 07:51:32;;;;;;;6.15;3.47;;;;;;;2.55;100.00;94309.13;10362119;28;20029;-72
2021/12/20 07:56:33;;;;;;;4.38;2.35;;;;;;;2.46;100.00;94309.72;10356764;28;20412;-73
2021/12/20 08:01:34;;;;;;;5.97;3.50;;;;;;;2.40;100.00;94316.78;10354434;28;20045;-78
2021/12/20 08:06:36;;;;;;;3.63;2.95;;;;;;;2.35;100.00;94316.66;10356191;28;20061;-77
2021/12/20 08:11:36;;;;;;;4.32;3.17;;;;;;;2.43;100.00;94321.59;10340178;28;20060;-74
2021/12/20 08:16:37;;;;;;;3.78;2.25;;;;;;;2.56;100.00;94313.38;10380360;23;20059;-76
2021/12/20 08:21:37;;;;;;;4.93;3.20;;;;;;;2.58;100.00;94313.16;10293045;28;20039;-78
2021/12/20 08:26:38;;;;;;;2.97;2.20;;;;;;;2.87;100.00;94329.13;10279458;28;20089;-72
2021/12/20 08:31:39;;;;;;;4.10;2.83;;;;;;;2.75;100.00;94313.25;10300998;28;20033;-73
2021/12/20 08:36:39;;;;;;;5.93;2.55;;;;;;;3.05;100.00;94298.94;10285937;28;20102;-71
2021/12/20 08:41:40;;;;;;;6.32;2.88;;;;;;;3.34;100.00;94317.56;10284166;28;20464;-72
2021/12/20 08:46:41;;;;;;;2.70;1.92;;;;;;;3.71;100.00;94320.59;10268943;28;20509;-71
2021/12/20 08:51:42;;;;;;;11.43;5.38;;;;;;;3.99;100.00;94321.56;10213639;29;20041;-74
2021/12/20 08:56:43;;;;;;;3.10;2.13;;;;;;;4.04;100.00;94324.28;10221023;28;20028;-74
2021/12/20 09:01:44;;;;;;;2.15;1.45;;;;;;;3.55;100.00;94308.88;10206137;29;20106;-75
2021/12/20 09:06:45;;;;;;;5.78;2.17;;;;;;;3.70;100.00;94295.06;10220729;28;20020;-76
2021/12/20 09:11:46;;;;;;;4.63;2.50;;;;;;;3.61;100.00;94319.59;10206216;29;20031;-72
2021/12/20 09:16:46;;;;;;;13.48;3.45;;;;;;;3.92;100.00;94296.97;10203795;29;20052;-77
2021/12/20 09:21:48;;;;;;;4.03;1.65;;;;;;;4.57;100.00;94300.84;10220807;28;20032;-72
2021/12/20 09:26:49;;;;;;;8.55;2.30;;;;;;;5.05;100.00;94290.53;10202146;29;20027;-70
2021/12/20 09:31:49;;;;;;;5.18;2.25;;;;;;;5.00;100.00;94295.00;10185499;29;20032;-71
2021/12/20 09:36:53;;;;;;;2.88;2.15;;;;;;;5.06;100.00;94301.97;10202852;29;20034;-70
2021/12/20 09:42:00;;;;;;;13.68;1.92;;;;;;;6.14;100.00;94295.03;10219273;29;20028;-70
2021/12/20 09:47:02;;;;;;;4.22;2.03;;;;;;;6.49;99.08;94297.09;10218058;28;20047;-74
2021/12/20 09:52:03;;;;;;;3.58;1.80;;;;;;;6.02;95.35;94297.84;10200451;29;20028;-68
2021/12/20 09:57:08;;;;;;;2.70;1.70;;;;;;;6.75;87.86;94286.56;10184768;29;20024;-72
2021/12/20 10:02:09;;;;;;;6.75;2.35;;;;;;;10.01;67.69;94285.84;10196377;29;20028;-72
2021/12/20 10:07:18;;;;;;;4.65;0.90;;;;;;;12.59;51.52;94271.91;10201617;29;20082;-74
2021/12/20 10:12:27;;;;;;;4.68;2.13;;;;;;;12.31;48.55;94286.13;10203596;28;20342;-70
2021/12/20 10:17:54;;;;;;;5.65;2.08;;;;;;;9.63;57.85;94307.06;10202563;29;20071;-69
2021/12/20 10:23:09;;;;;;;2.08;1.58;;;;;;;7.88;69.09;94310.13;10194082;29;20140;-74
2021/12/20 10:28:15;;;;;;;8.25;2.40;;;;;;;7.12;79.46;94319.59;10179547;29;20577;-69
2021/12/20 10:33:22;;;;;;;2.63;1.90;;;;;;;6.00;91.83;94321.31;10184195;29;20027;-67
2021/12/20 10:38:38;;;;;;;9.23;1.75;;;;;;;5.47;100.00;94315.75;10181991;28;20083;-72
2021/12/20 10:43:50;;;;;;;4.35;2.75;;;;;;;5.22;100.00;94314.41;10186886;29;20415;-70
2021/12/20 10:49:02;;;;;;;3.42;2.42;;;;;;;4.93;100.00;94313.81;10178360;29;20019;-74
2021/12/20 10:54:09;;;;;;;6.85;3.33;;;;;;;5.02;100.00;94316.84;10180903;29;20371;-73
2021/12/20 10:59:10;;;;;;;6.57;2.70;;;;;;;5.27;100.00;94313.66;10180799;29;20074;-71
2021/12/20 11:04:20;;;;;;;7.22;2.85;;;;;;;5.45;100.00;94310.66;10192414;29;20107;-73
2021/12/20 11:09:22;;;;;;;4.50;1.70;;;;;;;6.04;100.00;94301.09;10200919;28;20063;-71
2021/12/20 11:14:39;;;;;;;4.25;2.22;;;;;;;8.26;91.57;94296.47;10214402;29;20034;-69
2021/12/20 11:19:41;;;;;;;2.58;1.42;;;;;;;7.66;90.02;94284.44;10215845;29;20215;-74
2021/12/20 11:24:47;;;;;;;5.97;2.13;;;;;;;6.12;93.99;94289.91;10197890;29;20494;-74
2021/12/20 11:29:49;;;;;;;4.80;3.15;;;;;;;6.44;95.09;94286.38;10200081;29;20035;-74
2021/12/20 11:34:50;;;;;;;2.38;1.58;;;;;;;5.56;100.00;94292.09;10220841;29;20034;-70
2021/12/20 11:39:52;;;;;;;3.13;1.52;;;;;;;5.36;100.00;94312.16;10239622;28;20038;-71
2021/12/20 11:44:59;;;;;;;2.22;1.52;;;;;;;4.79;100.00;94318.69;10197989;29;20032;-72
2021/12/20 11:50:10;;;;;;;3.95;1.88;;;;;;;3.88;100.00;94339.22;10197750;29;20038;-68
2021/12/20 11:55:23;;;;;;;4.88;2.08;;;;;;;3.89;100.00;94340.81;10213912;29;20019;-74
2021/12/20 12:00:30;;;;;;;2.67;2.22;;;;;;;3.32;100.00;94338.22;10181757;29;20030;-71
2021/12/20 12:05:48;;;;;;;2.35;1.65;;;;;;;3.68;100.00;94344.16;10213576;29;20023;-76
2021/12/20 12:10:48;;;;;;;4.72;2.00;;;;;;;4.22;100.00;94349.03;10198055;29;20049;-72
2021/12/20 12:16:05;;;;;;;6.13;2.13;;;;;;;4.44;100.00;94338.47;10212435;29;20568;-74
2021/12/20 12:21:07;;;;;;;3.67;2.05;;;;;;;4.84;100.00;94342.72;10197295;29;20106;-72
2021/12/20 12:26:09;;;;;;;3.58;1.80;;;;;;;4.49;100.00;94343.84;10213011;28;20027;-74
2021/12/20 12:31:10;;;;;;;2.00;1.88;;;;;;;4.32;100.00;94348.41;10213614;29;20036;-72
2021/12/20 12:36:30;;;;;;;6.47;2.67;;;;;;;4.26;100.00;94353.63;10212577;29;20062;-73
2021/12/20 12:41:41;;;;;;;2.28;1.70;;;;;;;4.06;100.00;94364.75;10206891;29;20493;-74
2021/12/20 12:46:48;;;;;;;4.82;2.30;;;;;;;3.92;100.00;94358.94;10221819;28;20039;-73
2021/12/20 12:51:53;;;;;;;3.75;2.70;;;;;;;3.81;100.00;94369.63;10181982;29;20028;-73
2021/12/20 12:56:54;;;;;;;4.18;2.63;;;;;;;3.99;100.00;94363.28;10203943;29;20163;-72
2021/12/20 13:01:56;;;;;;;8.07;3.40;;;;;;;3.96;100.00;94363.78;10213179;28;20024;-70
2021/12/20 13:06:57;;;;;;;9.77;3.30;;;;;;;3.72;100.00;94362.06;10212602;29;20032;-71
2021/12/20 13:12:08;;;;;;;3.70;2.28;;;;;;;3.71;100.00;94378.25;10212918;29;20027;-73
2021/12/20 13:17:09;;;;;;;3.50;2.08;;;;;;;3.63;100.00;94381.28;10219666;29;20062;-70
2021/12/20 13:22:09;;;;;;;9.77;4.72;;;;;;;3.44;100.00;94380.69;10202867;29;20486;-71
2021/12/20 13:27:10;;;;;;;3.92;2.00;;;;;;;3.40;100.00;94383.00;10219463;29;20024;-73
2021/12/20 13:32:13;;;;;;;5.50;1.98;;;;;;;3.26;100.00;94382.47;10219327;29;20019;-75
2021/12/20 13:37:13;;;;;;;4.55;2.08;;;;;;;3.31;100.00;94401.16;10205059;28;20023;-71
2021/12/20 13:42:14;;;;;;;4.10;2.35;;;;;;;3.06;100.00;94418.19;10230278;29;20086;-70
2021/12/20 13:47:19;;;;;;;3.63;2.90;;;;;;;2.82;100.00;94417.41;10224903;28;20046;-71
2021/12/20 13:52:21;;;;;;;7.55;2.83;;;;;;;2.54;100.00;94449.94;10203565;29;20279;-72
2021/12/20 13:57:23;;;;;;;4.03;2.03;;;;;;;2.28;100.00;94436.09;10218777;28;20115;-71
2021/12/20 14:02:34;;;;;;;4.18;2.38;;;;;;;2.19;100.00;94435.63;10215456;28;20469;-70
2021/12/20 14:07:38;;;;;;;5.18;2.63;;;;;;;2.16;100.00;94454.63;10199271;29;20115;-72
2021/12/20 14:12:41;;;;;;;4.97;2.53;;;;;;;1.91;100.00;94456.63;10202618;29;20047;-73
2021/12/20 14:18:07;;;;;;;3.65;2.47;;;;;;;1.46;100.00;94458.63;10218473;29;20226;-70
2021/12/20 14:23:30;;;;;;;7.70;2.63;;;;;;;1.11;100.00;94471.69;10216804;29;20410;-71
2021/12/20 14:28:32;;;;;;;5.88;3.10;;;;;;;0.94;100.00;94459.03;10204836;29;20039;-73
2021/12/20 14:33:47;;;;;;;7.10;3.50;;;;;;;0.78;100.00;94473.66;10202110;29;20122;-73
2021/12/20 14:38:48;;;;;;;5.38;3.13;;;;;;;0.60;100.00;94479.72;10202862;29;20032;-74
2021/12/20 14:43:49;;;;;;;4.55;3.10;;;;;;;0.42;100.00;94483.09;10202876;29;20040;-72
2021/12/20 14:48:55;;;;;;;3.47;3.08;;;;;;;0.31;100.00;94481.16;10201582;29;20669;-70
2021/12/20 14:54:14;;;;;;;5.00;3.90;;;;;;;0.33;100.00;94506.34;10199588;29;20516;-75
2021/12/20 14:59:21;;;;;;;4.95;3.90;;;;;;;0.20;100.00;94505.66;10202208;29;20039;-70
2021/12/20 15:04:22;;;;;;;9.35;3.90;;;;;;;0.07;100.00;94511.81;10200273;29;20040;-70
2021/12/20 15:09:24;;;;;;;7.05;4.18;;;;;;;-0.02;100.00;94506.78;10216474;29;20028;-74
2021/12/20 15:14:25;;;;;;;13.07;3.80;;;;;;;-0.05;100.00;94522.25;10198903;29;20027;-72
2021/12/20 15:19:27;;;;;;;8.90;4.43;;;;;;;-0.09;100.00;94534.28;10191946;28;20615;-74
2021/12/20 15:24:28;;;;;;;6.65;3.85;;;;;;;-0.10;100.00;94530.00;10161033;29;20032;-70
2021/12/20 15:29:30;;;;;;;5.20;3.60;;;;;;;-0.18;100.00;94541.63;10160794;29;20028;-76
2021/12/20 15:34:30;;;;;;;5.78;2.97;;;;;;;-0.16;100.00;94555.44;10159283;29;20514;-73
2021/12/20 15:39:31;;;;;;;7.22;4.07;;;;;;;-0.27;100.00;94582.50;10194528;29;20148;-71
2021/12/20 15:44:31;;;;;;;5.13;3.35;;;;;;;-0.33;100.00;94565.66;10198651;29;20465;-71
2021/12/20 15:49:31;;;;;;;6.82;3.17;;;;;;;-0.30;100.00;94570.53;10190374;29;20052;-74
2021/12/20 15:54:32;;;;;;;4.82;2.85;;;;;;;-0.37;100.00;94586.38;10158705;29;20050;-71
2021/12/20 15:59:33;;;;;;;7.32;3.15;;;;;;;-0.44;100.00;94587.44;10175328;29;20130;-72
2021/12/20 16:04:34;;;;;;;5.25;2.60;;;;;;;-0.33;100.00;94593.91;10201365;29;20365;-71
2021/12/20 16:09:34;;;;;;;4.20;3.22;;;;;;;-0.41;100.00;94603.66;10251768;28;20035;-70
2021/12/20 16:14:35;;;;;;;8.23;3.70;;;;;;;-0.52;100.00;94612.22;10222655;28;20031;-71
2021/12/20 16:19:36;;;;;;;5.85;3.53;;;;;;;-0.51;100.00;94611.22;10233601;28;20078;-70
2021/12/20 16:24:36;;;;;;;7.35;3.03;;;;;;;-0.50;100.00;94618.13;10204981;29;20069;-68
2021/12/20 16:29:37;;;;;;;6.63;3.65;;;;;;;-0.42;100.00;94627.63;10236858;28;20835;-72
2021/12/20 16:34:37;;;;;;;7.22;3.50;;;;;;;-0.36;100.00;94635.53;10236511;28;20113;-72
2021/12/20 16:39:38;;;;;;;5.28;4.07;;;;;;;-0.47;100.00;94632.75;10220866;29;20489;-73
2021/12/20 16:44:38;;;;;;;4.82;3.42;;;;;;;-0.45;100.00;94644.69;10236179;29;20094;-74
2021/12/20 16:49:39;;;;;;;5.63;3.95;;;;;;;-0.29;100.00;94658.47;10203550;28;20090;-71
2021/12/20 16:54:40;;;;;;;5.20;3.08;;;;;;;-0.20;100.00;94657.22;10221085;29;20024;-71
2021/12/20 16:59:41;;;;;;;7.20;4.10;;;;;;;-0.15;100.00;94670.63;10204728;29;20032;-70
2021/12/20 17:04:43;;;;;;;4.95;3.83;;;;;;;-0.13;100.00;94692.34;10220129;29;20517;-68
2021/12/20 17:09:44;;;;;;;8.35;3.67;;;;;;;-0.15;100.00;94685.66;10204533;29;20035;-70
2021/12/20 17:14:44;;;;;;;8.15;3.95;;;;;;;-0.10;100.00;94693.78;10219671;29;20399;-73
2021/12/20 17:19:45;;;;;;;10.20;4.18;;;;;;;-0.18;100.00;94690.34;10203576;29;20146;-68
2021/12/20 17:24:47;;;;;;;9.30;4.55;;;;;;;-0.02;100.00;94693.56;10203931;29;20028;-73
2021/12/20 17:29:48;;;;;;;18.80;6.18;;;;;;;0.15;100.00;94705.28;10205251;29;20028;-74
2021/12/20 17:34:48;;;;;;;15.35;6.63;;;;;;;0.17;100.00;94705.88;10203015;29;20031;-73
2021/12/20 17:39:49;;;;;;;6.95;4.03;;;;;;;0.12;100.00;94710.97;10199637;29;20035;-74
2021/12/20 17:44:49;;;;;;;15.60;4.85;;;;;;;-0.07;100.00;94707.41;10219056;28;20035;-71
2021/12/20 17:49:51;;;;;;;8.40;5.20;;;;;;;-0.13;100.00;94718.78;10179271;28;20127;-69
2021/12/20 17:54:51;;;;;;;5.95;3.80;;;;;;;-0.20;100.00;94708.22;10180218;29;20087;-69
2021/12/20 17:59:52;;;;;;;5.30;3.63;;;;;;;-0.15;100.00;94707.63;10179018;29;20039;-69
2021/12/20 18:04:57;;;;;;;8.82;4.18;;;;;;;-0.18;100.00;94716.75;10209121;28;20050;-71
2021/12/20 18:10:00;;;;;;;7.63;4.22;;;;;;;-0.40;100.00;94723.31;10165315;29;20107;-69
2021/12/20 18:15:01;;;;;;;8.43;5.05;;;;;;;-0.38;100.00;94721.25;10182849;28;20088;-69
2021/12/20 18:20:02;;;;;;;6.50;5.45;;;;;;;-0.37;100.00;94722.88;10242076;29;20437;-74
2021/12/20 18:25:04;;;;;;;12.48;4.35;;;;;;;-0.35;100.00;94728.75;10241082;29;20055;-72
2021/12/20 18:30:05;;;;;;;8.35;5.32;;;;;;;-0.39;100.00;94728.38;10241111;29;20479;-70
2021/12/20 18:35:07;;;;;;;5.50;4.70;;;;;;;-0.59;100.00;94738.13;10241436;28;20019;-73
2021/12/20 18:40:10;;;;;;;8.30;4.53;;;;;;;-0.50;100.00;94747.47;10228470;28;20028;-70
2021/12/20 18:45:11;;;;;;;11.13;6.07;;;;;;;-0.63;100.00;94752.75;10202332;29;20182;-73
2021/12/20 18:50:14;;;;;;;8.40;4.82;;;;;;;-0.63;100.00;94766.75;10217338;29;20059;-71
2021/12/20 18:55:15;;;;;;;9.00;4.90;;;;;;;-0.69;100.00;94775.47;10200935;29;20023;-67
2021/12/20 19:00:16;;;;;;;5.05;4.20;;;;;;;-0.73;100.00;94764.50;10201288;29;20034;-72
2021/12/20 19:05:16;;;;;;;6.45;3.97;;;;;;;-0.79;100.00;94775.06;10201966;28;20102;-69
2021/12/20 19:10:18;;;;;;;9.25;4.60;;;;;;;-0.83;100.00;94777.28;10202274;29;20071;-72
2021/12/20 19:15:19;;;;;;;6.15;3.20;;;;;;;-0.85;100.00;94766.13;10218212;28;20047;-72
2021/12/20 19:20:19;;;;;;;5.43;3.78;;;;;;;-0.88;100.00;94775.25;10201473;29;20091;-72
2021/12/20 19:25:22;;;;;;;8.95;4.50;;;;;;;-0.80;100.00;94776.06;10201471;29;20040;-74
2021/12/20 19:30:26;;;;;;;8.98;3.78;;;;;;;-0.74;100.00;94780.53;10201956;29;20035;-74
2021/12/20 19:35:28;;;;;;;5.07;3.45;;;;;;;-0.79;100.00;94783.78;10240002;29;20030;-72
2021/12/20 19:40:29;;;;;;;4.63;3.22;;;;;;;-0.80;100.00;94791.91;10255108;28;20114;-70
2021/12/20 19:45:32;;;;;;;5.75;3.75;;;;;;;-0.80;100.00;94786.63;10196157;28;20413;-69
2021/12/20 19:50:33;;;;;;;5.72;4.15;;;;;;;-0.82;100.00;94789.47;10160496;29;20036;-70
2021/12/20 19:55:34;;;;;;;4.88;3.10;;;;;;;-0.84;100.00;94788.84;10186261;29;20111;-71
2021/12/20 20:00:35;;;;;;;6.35;4.45;;;;;;;-0.78;100.00;94795.16;10200199;29;20023;-72
2021/12/20 20:05:36;;;;;;;5.28;3.55;;;;;;;-0.71;100.00;94801.28;10215007;28;20067;-71
2021/12/20 20:10:36;;;;;;;6.15;3.00;;;;;;;-0.69;100.00;94793.94;10199704;29;20024;-72
2021/12/20 20:15:37;;;;;;;6.07;2.65;;;;;;;-0.77;100.00;94817.88;10200527;29;20071;-70
2021/12/20 20:20:38;;;;;;;3.75;2.78;;;;;;;-0.75;100.00;94805.31;10216474;28;20138;-78
2021/12/20 20:25:38;;;;;;;5.93;2.58;;;;;;;-0.84;99.79;94812.59;10215426;29;20034;-74
2021/12/20 20:30:39;;;;;;;5.88;2.65;;;;;;;-0.81;99.77;94816.66;10200297;29;20395;-73
2021/12/20 20:35:39;;;;;;;4.18;2.33;;;;;;;-0.86;100.00;94814.63;10200248;29;20030;-72
2021/12/20 20:40:42;;;;;;;6.03;2.75;;;;;;;-0.86;100.00;94810.16;10201128;29;20030;-68
2021/12/20 20:45:42;;;;;;;5.72;2.75;;;;;;;-0.94;100.00;94812.97;10215870;29;20036;-73
2021/12/20 20:50:43;;;;;;;3.15;2.67;;;;;;;-1.05;100.00;94810.94;10200636;29;20051;-72
2021/12/20 20:55:45;;;;;;;8.38;2.10;;;;;;;-1.12;100.00;94810.91;10198471;29;20047;-73
2021/12/20 21:06:05;;;;;;;2.60;2.22;;;;;;;-1.13;100.00;94811.09;10199951;29;20036;-72
2021/12/20 21:11:05;;;;;;;3.40;2.30;;;;;;;-1.09;100.00;94814.97;10214123;28;20032;-67
2021/12/20 21:16:05;;;;;;;2.70;2.42;;;;;;;-1.12;98.83;94818.00;10198440;29;20055;-70
2021/12/20 21:21:08;;;;;;;4.57;2.35;;;;;;;-1.08;99.12;94817.41;10199802;29;20477;-69
2021/12/20 21:26:09;;;;;;;3.45;2.40;;;;;;;-1.04;99.74;94828.38;10214081;28;20477;-72
2021/12/20 21:31:09;;;;;;;5.05;2.58;;;;;;;-1.13;100.00;94819.00;10214031;28;20031;-71
2021/12/20 21:36:10;;;;;;;5.05;3.38;;;;;;;-1.11;100.00;94806.47;10220112;28;20035;-70
2021/12/20 21:41:10;;;;;;;5.35;2.67;;;;;;;-1.14;100.00;94823.47;10221068;28;20039;-73
2021/12/20 21:46:11;;;;;;;2.58;2.30;;;;;;;-1.15;100.00;94834.22;10205803;29;20078;-72
2021/12/20 21:51:12;;;;;;;3.42;2.38;;;;;;;-1.15;100.00;94828.97;10220653;28;20047;-73
2021/12/20 21:56:12;;;;;;;5.00;2.80;;;;;;;-1.19;100.00;94835.63;10220718;28;20028;-68
2021/12/20 22:01:13;;;;;;;5.90;3.25;;;;;;;-1.17;100.00;94833.59;10204876;29;20032;-69
2021/12/20 22:06:14;;;;;;;3.25;2.22;;;;;;;-1.09;100.00;94833.44;10219617;28;20070;-72
2021/12/20 22:11:14;;;;;;;6.28;3.05;;;;;;;-1.04;100.00;94829.19;10205103;29;20036;-73
2021/12/20 22:16:15;;;;;;;2.55;2.17;;;;;;;-0.99;100.00;94823.34;10316695;23;20105;-73
2021/12/20 22:21:16;;;;;;;3.83;1.98;;;;;;;-1.00;100.00;94832.25;10322758;28;20100;-73
2021/12/20 22:26:16;;;;;;;3.15;2.25;;;;;;;-0.98;100.00;94827.56;10322916;28;20076;-70
2021/12/20 22:31:17;;;;;;;3.90;1.98;;;;;;;-1.09;100.00;94818.44;10305737;28;20026;-72
2021/12/20 22:36:18;;;;;;;2.88;2.38;;;;;;;-1.18;100.00;94839.91;10322785;28;20444;-68
2021/12/20 22:41:19;;;;;;;4.05;2.28;;;;;;;-1.09;100.00;94836.06;10321985;28;20037;-70
2021/12/20 22:46:19;;;;;;;3.67;2.33;;;;;;;-0.97;100.00;94829.22;10304208;28;20037;-73
2021/12/20 22:51:21;;;;;;;11.05;2.70;;;;;;;-0.84;100.00;94828.41;10291529;28;20031;-70
2021/12/20 22:56:22;;;;;;;3.53;2.70;;;;;;;-0.92;100.00;94832.06;10298036;28;20120;-73
2021/12/20 23:01:22;;;;;;;4.03;2.22;;;;;;;-0.98;100.00;94826.78;10296887;28;20651;-70
2021/12/20 23:06:23;;;;;;;5.78;2.90;;;;;;;-0.84;100.00;94827.63;10280736;28;20027;-71
2021/12/20 23:11:23;;;;;;;5.32;3.08;;;;;;;-0.87;100.00;94834.91;10280585;28;20023;-70
2021/12/20 23:16:24;;;;;;;5.72;3.22;;;;;;;-0.74;100.00;94841.22;10279396;28;20130;-68
2021/12/20 23:21:25;;;;;;;3.97;2.88;;;;;;;-0.83;100.00;94839.81;10263718;28;20416;-73
2021/12/20 23:26:26;;;;;;;3.80;3.42;;;;;;;-0.87;100.00;94837.53;10282158;28;20393;-75
2021/12/20 23:31:26;;;;;;;3.40;2.92;;;;;;;-0.69;100.00;94846.72;10280288;28;20022;-69
2021/12/20 23:36:27;;;;;;;4.95;2.88;;;;;;;-0.58;100.00;94830.31;10279730;28;20048;-73